sensor_id;sensor_type;location;lat;lon;timestamp;P1;durP1;ratioP1;P2;durP2;ratioP2
20609;SDS011;10463;52.378;9.688;2022-08-21T00:02:33;3.23;;;2.20;;
20609;SDS011;10463;52.378;9.688;2022-08-21T00:05:20;4.13;;;2.80;;
20609;SDS011;10463;52.378;9.688;2022-08-21T00:08:05;3.90;;;2.50;;
20609;SDS011;10463;52.378;9.688;2022-08-21T00:10:51;4.93;;;2.30;;
20609;SDS011;10463;52.378;9.688;2022-08-21T00:13:36;3.00;;;1.83;;
20609;SDS011;10463;52.378;9.688;2022-08-21T00:16:21;3.27;;;2.47;;
20609;SDS011;10463;52.378;9.688;2022-08-21T00:19:06;3.47;;;2.10;;
20609;SDS011;10463;52.378;9.688;2022-08-21T00:21:54;3.03;;;2.60;;
20609;SDS011;10463;52.378;9.688;2022-08-21T00:24:40;4.73;;;2.63;;
20609;SDS011;10463;52.378;9.688;2022-08-21T00:27:25;4.77;;;2.67;;
20609;SDS011;10463;52.378;9.688;2022-08-21T00:30:11;4.93;;;2.37;;
20609;SDS011;10463;52.378;9.688;2022-08-21T00:32:59;3.23;;;2.30;;
20609;SDS011;10463;52.378;9.688;2022-08-21T00:35:45;6.13;;;3.03;;
20609;SDS011;10463;52.378;9.688;2022-08-21T00:38:31;3.77;;;2.30;;
20609;SDS011;10463;52.378;9.688;2022-08-21T00:41:16;4.20;;;2.60;;
20609;SDS011;10463;52.378;9.688;2022-08-21T00:44:01;3.77;;;2.53;;
20609;SDS011;10463;52.378;9.688;2022-08-21T00:46:46;3.30;;;2.10;;
20609;SDS011;10463;52.378;9.688;2022-08-21T00:49:31;2.50;;;1.90;;
20609;SDS011;10463;52.378;9.688;2022-08-21T00:52:19;5.30;;;2.13;;
20609;SDS011;10463;52.378;9.688;2022-08-21T00:55:09;3.00;;;2.23;;
20609;SDS011;10463;52.378;9.688;2022-08-21T00:57:57;3.90;;;2.50;;
20609;SDS011;10463;52.378;9.688;2022-08-21T01:00:46;2.60;;;2.00;;
20609;SDS011;10463;52.378;9.688;2022-08-21T01:03:32;3.17;;;2.20;;
20609;SDS011;10463;52.378;9.688;2022-08-21T01:06:18;2.83;;;1.90;;
20609;SDS011;10463;52.378;9.688;2022-08-21T01:09:04;4.40;;;2.50;;
20609;SDS011;10463;52.378;9.688;2022-08-21T01:11:50;2.97;;;2.00;;
20609;SDS011;10463;52.378;9.688;2022-08-21T01:14:35;3.00;;;1.87;;
20609;SDS011;10463;52.378;9.688;2022-08-21T01:17:21;2.90;;;2.10;;
20609;SDS011;10463;52.378;9.688;2022-08-21T01:20:09;2.87;;;2.40;;
20609;SDS011;10463;52.378;9.688;2022-08-21T01:22:57;3.20;;;2.40;;
20609;SDS011;10463;52.378;9.688;2022-08-21T01:25:42;3.10;;;2.30;;
20609;SDS011;10463;52.378;9.688;2022-08-21T01:28:26;4.33;;;2.23;;
20609;SDS011;10463;52.378;9.688;2022-08-21T01:31:15;2.77;;;2.03;;
20609;SDS011;10463;52.378;9.688;2022-08-21T01:34:04;4.20;;;2.60;;
20609;SDS011;10463;52.378;9.688;2022-08-21T01:36:49;3.37;;;2.60;;
20609;SDS011;10463;52.378;9.688;2022-08-21T01:39:35;4.87;;;3.20;;
20609;SDS011;10463;52.378;9.688;2022-08-21T01:42:20;4.47;;;2.43;;
20609;SDS011;10463;52.378;9.688;2022-08-21T01:45:06;3.43;;;2.30;;
20609;SDS011;10463;52.378;9.688;2022-08-21T01:47:53;3.90;;;2.53;;
20609;SDS011;10463;52.378;9.688;2022-08-21T01:50:37;3.17;;;2.37;;
20609;SDS011;10463;52.378;9.688;2022-08-21T01:53:22;2.50;;;1.90;;
20609;SDS011;10463;52.378;9.688;2022-08-21T01:56:10;3.03;;;2.30;;
20609;SDS011;10463;52.378;9.688;2022-08-21T01:58:56;4.60;;;2.20;;
20609;SDS011;10463;52.378;9.688;2022-08-21T02:01:40;2.90;;;2.60;;
20609;SDS011;10463;52.378;9.688;2022-08-21T02:04:26;4.17;;;2.83;;
20609;SDS011;10463;52.378;9.688;2022-08-21T02:07:11;3.37;;;2.63;;
20609;SDS011;10463;52.378;9.688;2022-08-21T02:09:55;5.80;;;2.50;;
20609;SDS011;10463;52.378;9.688;2022-08-21T02:12:41;4.07;;;2.57;;
20609;SDS011;10463;52.378;9.688;2022-08-21T02:15:27;2.87;;;2.50;;
20609;SDS011;10463;52.378;9.688;2022-08-21T02:18:13;3.80;;;2.70;;
20609;SDS011;10463;52.378;9.688;2022-08-21T02:20:58;4.10;;;2.73;;
20609;SDS011;10463;52.378;9.688;2022-08-21T02:23:43;3.27;;;2.70;;
20609;SDS011;10463;52.378;9.688;2022-08-21T02:26:28;3.90;;;2.80;;
20609;SDS011;10463;52.378;9.688;2022-08-21T02:29:15;3.67;;;2.63;;
20609;SDS011;10463;52.378;9.688;2022-08-21T02:32:00;4.33;;;2.70;;
20609;SDS011;10463;52.378;9.688;2022-08-21T02:34:44;5.00;;;3.10;;
20609;SDS011;10463;52.378;9.688;2022-08-21T02:37:29;4.50;;;2.80;;
20609;SDS011;10463;52.378;9.688;2022-08-21T02:40:15;4.03;;;2.87;;
20609;SDS011;10463;52.378;9.688;2022-08-21T02:43:02;4.10;;;3.33;;
20609;SDS011;10463;52.378;9.688;2022-08-21T02:45:50;5.13;;;2.90;;
20609;SDS011;10463;52.378;9.688;2022-08-21T02:48:36;3.03;;;2.47;;
20609;SDS011;10463;52.378;9.688;2022-08-21T02:51:21;3.83;;;2.70;;
20609;SDS011;10463;52.378;9.688;2022-08-21T02:54:07;3.00;;;2.30;;
20609;SDS011;10463;52.378;9.688;2022-08-21T02:56:51;3.53;;;2.93;;
20609;SDS011;10463;52.378;9.688;2022-08-21T02:59:36;4.47;;;3.10;;
20609;SDS011;10463;52.378;9.688;2022-08-21T03:02:22;4.80;;;2.67;;
20609;SDS011;10463;52.378;9.688;2022-08-21T03:05:08;3.30;;;2.67;;
20609;SDS011;10463;52.378;9.688;2022-08-21T03:07:54;3.17;;;2.40;;
20609;SDS011;10463;52.378;9.688;2022-08-21T03:10:41;4.40;;;3.07;;
20609;SDS011;10463;52.378;9.688;2022-08-21T03:13:27;3.97;;;3.00;;
20609;SDS011;10463;52.378;9.688;2022-08-21T03:16:12;4.70;;;3.00;;
20609;SDS011;10463;52.378;9.688;2022-08-21T03:18:58;4.17;;;3.07;;
20609;SDS011;10463;52.378;9.688;2022-08-21T03:21:43;3.43;;;3.13;;
20609;SDS011;10463;52.378;9.688;2022-08-21T03:24:28;3.13;;;2.83;;
20609;SDS011;10463;52.378;9.688;2022-08-21T03:27:13;4.20;;;2.87;;
20609;SDS011;10463;52.378;9.688;2022-08-21T03:29:57;3.47;;;3.13;;
20609;SDS011;10463;52.378;9.688;2022-08-21T03:32:42;3.30;;;2.70;;
20609;SDS011;10463;52.378;9.688;2022-08-21T03:35:29;3.47;;;3.17;;
20609;SDS011;10463;52.378;9.688;2022-08-21T03:38:14;3.30;;;3.00;;
20609;SDS011;10463;52.378;9.688;2022-08-21T03:40:59;3.60;;;3.17;;
20609;SDS011;10463;52.378;9.688;2022-08-21T03:43:44;3.77;;;2.97;;
20609;SDS011;10463;52.378;9.688;2022-08-21T03:46:29;4.00;;;3.20;;
20609;SDS011;10463;52.378;9.688;2022-08-21T03:49:14;4.20;;;3.30;;
20609;SDS011;10463;52.378;9.688;2022-08-21T03:52:00;3.47;;;2.90;;
20609;SDS011;10463;52.378;9.688;2022-08-21T03:54:45;3.43;;;2.77;;
20609;SDS011;10463;52.378;9.688;2022-08-21T03:57:30;3.60;;;2.47;;
20609;SDS011;10463;52.378;9.688;2022-08-21T04:00:16;4.07;;;2.80;;
20609;SDS011;10463;52.378;9.688;2022-08-21T04:03:03;3.73;;;2.93;;
20609;SDS011;10463;52.378;9.688;2022-08-21T04:05:48;6.40;;;3.33;;
20609;SDS011;10463;52.378;9.688;2022-08-21T04:08:35;4.30;;;2.97;;
20609;SDS011;10463;52.378;9.688;2022-08-21T04:11:20;4.10;;;2.30;;
20609;SDS011;10463;52.378;9.688;2022-08-21T04:14:05;5.00;;;2.70;;
20609;SDS011;10463;52.378;9.688;2022-08-21T04:16:50;3.30;;;2.43;;
20609;SDS011;10463;52.378;9.688;2022-08-21T04:19:34;3.80;;;2.57;;
20609;SDS011;10463;52.378;9.688;2022-08-21T04:22:19;4.63;;;3.10;;
20609;SDS011;10463;52.378;9.688;2022-08-21T04:25:06;4.33;;;2.73;;
20609;SDS011;10463;52.378;9.688;2022-08-21T04:27:51;6.23;;;2.73;;
20609;SDS011;10463;52.378;9.688;2022-08-21T04:30:36;6.10;;;2.90;;
20609;SDS011;10463;52.378;9.688;2022-08-21T04:33:21;9.07;;;2.57;;
20609;SDS011;10463;52.378;9.688;2022-08-21T04:36:08;3.70;;;2.60;;
20609;SDS011;10463;52.378;9.688;2022-08-21T04:38:53;3.57;;;2.80;;
20609;SDS011;10463;52.378;9.688;2022-08-21T04:41:39;5.10;;;2.97;;
20609;SDS011;10463;52.378;9.688;2022-08-21T04:44:25;5.67;;;2.37;;
20609;SDS011;10463;52.378;9.688;2022-08-21T04:47:09;4.53;;;2.63;;
20609;SDS011;10463;52.378;9.688;2022-08-21T04:49:54;4.83;;;2.40;;
20609;SDS011;10463;52.378;9.688;2022-08-21T04:52:39;3.30;;;2.40;;
20609;SDS011;10463;52.378;9.688;2022-08-21T04:55:24;4.13;;;2.27;;
20609;SDS011;10463;52.378;9.688;2022-08-21T04:58:15;4.77;;;2.80;;
20609;SDS011;10463;52.378;9.688;2022-08-21T05:01:03;4.47;;;2.63;;
20609;SDS011;10463;52.378;9.688;2022-08-21T05:03:53;4.20;;;2.93;;
20609;SDS011;10463;52.378;9.688;2022-08-21T05:06:42;2.97;;;1.97;;
20609;SDS011;10463;52.378;9.688;2022-08-21T05:09:31;5.27;;;2.80;;
20609;SDS011;10463;52.378;9.688;2022-08-21T05:12:17;4.53;;;2.63;;
20609;SDS011;10463;52.378;9.688;2022-08-21T05:15:04;3.47;;;2.47;;
20609;SDS011;10463;52.378;9.688;2022-08-21T05:17:49;4.07;;;2.40;;
20609;SDS011;10463;52.378;9.688;2022-08-21T05:20:34;4.37;;;2.20;;
20609;SDS011;10463;52.378;9.688;2022-08-21T05:23:20;3.50;;;2.70;;
20609;SDS011;10463;52.378;9.688;2022-08-21T05:26:05;5.97;;;2.80;;
20609;SDS011;10463;52.378;9.688;2022-08-21T05:28:49;5.30;;;2.40;;
20609;SDS011;10463;52.378;9.688;2022-08-21T05:31:35;3.83;;;2.40;;
20609;SDS011;10463;52.378;9.688;2022-08-21T05:34:23;3.97;;;2.30;;
20609;SDS011;10463;52.378;9.688;2022-08-21T05:37:10;7.90;;;3.30;;
20609;SDS011;10463;52.378;9.688;2022-08-21T05:39:56;4.40;;;2.37;;
20609;SDS011;10463;52.378;9.688;2022-08-21T05:42:41;5.97;;;2.47;;
20609;SDS011;10463;52.378;9.688;2022-08-21T05:45:27;3.53;;;2.50;;
20609;SDS011;10463;52.378;9.688;2022-08-21T05:48:16;4.73;;;2.53;;
20609;SDS011;10463;52.378;9.688;2022-08-21T05:51:05;5.37;;;2.27;;
20609;SDS011;10463;52.378;9.688;2022-08-21T05:53:52;4.90;;;2.47;;
20609;SDS011;10463;52.378;9.688;2022-08-21T05:56:36;3.87;;;2.57;;
20609;SDS011;10463;52.378;9.688;2022-08-21T05:59:21;6.30;;;2.20;;
20609;SDS011;10463;52.378;9.688;2022-08-21T06:02:07;3.50;;;2.23;;
20609;SDS011;10463;52.378;9.688;2022-08-21T06:04:57;5.73;;;2.70;;
20609;SDS011;10463;52.378;9.688;2022-08-21T06:07:41;3.83;;;2.50;;
20609;SDS011;10463;52.378;9.688;2022-08-21T06:10:26;3.47;;;2.70;;
20609;SDS011;10463;52.378;9.688;2022-08-21T06:13:11;4.77;;;2.47;;
20609;SDS011;10463;52.378;9.688;2022-08-21T06:16:04;4.17;;;2.60;;
20609;SDS011;10463;52.378;9.688;2022-08-21T06:18:52;4.53;;;2.37;;
20609;SDS011;10463;52.378;9.688;2022-08-21T06:21:38;4.57;;;2.83;;
20609;SDS011;10463;52.378;9.688;2022-08-21T06:24:22;4.50;;;2.53;;
20609;SDS011;10463;52.378;9.688;2022-08-21T06:27:08;3.67;;;2.10;;
20609;SDS011;10463;52.378;9.688;2022-08-21T06:29:53;4.03;;;2.87;;
20609;SDS011;10463;52.378;9.688;2022-08-21T06:32:40;3.93;;;2.40;;
20609;SDS011;10463;52.378;9.688;2022-08-21T06:35:25;3.20;;;2.57;;
20609;SDS011;10463;52.378;9.688;2022-08-21T06:38:11;4.00;;;2.27;;
20609;SDS011;10463;52.378;9.688;2022-08-21T06:40:57;5.20;;;2.60;;
20609;SDS011;10463;52.378;9.688;2022-08-21T06:43:41;3.67;;;2.20;;
20609;SDS011;10463;52.378;9.688;2022-08-21T06:46:28;3.40;;;2.03;;
20609;SDS011;10463;52.378;9.688;2022-08-21T06:49:13;3.73;;;2.50;;
20609;SDS011;10463;52.378;9.688;2022-08-21T06:51:58;5.73;;;2.20;;
20609;SDS011;10463;52.378;9.688;2022-08-21T06:54:44;3.23;;;2.23;;
20609;SDS011;10463;52.378;9.688;2022-08-21T06:57:29;4.20;;;2.07;;
20609;SDS011;10463;52.378;9.688;2022-08-21T07:00:14;3.63;;;2.50;;
20609;SDS011;10463;52.378;9.688;2022-08-21T07:02:59;5.10;;;2.83;;
20609;SDS011;10463;52.378;9.688;2022-08-21T07:05:44;3.87;;;2.50;;
20609;SDS011;10463;52.378;9.688;2022-08-21T07:08:29;5.03;;;2.00;;
20609;SDS011;10463;52.378;9.688;2022-08-21T07:11:18;5.53;;;2.47;;
20609;SDS011;10463;52.378;9.688;2022-08-21T07:14:04;3.07;;;2.03;;
20609;SDS011;10463;52.378;9.688;2022-08-21T07:16:49;4.73;;;2.57;;
20609;SDS011;10463;52.378;9.688;2022-08-21T07:19:35;4.27;;;2.17;;
20609;SDS011;10463;52.378;9.688;2022-08-21T07:22:20;6.27;;;3.00;;
20609;SDS011;10463;52.378;9.688;2022-08-21T07:25:05;9.80;;;3.57;;
20609;SDS011;10463;52.378;9.688;2022-08-21T07:27:52;4.50;;;2.50;;
20609;SDS011;10463;52.378;9.688;2022-08-21T07:30:37;3.97;;;1.93;;
20609;SDS011;10463;52.378;9.688;2022-08-21T07:33:22;5.90;;;2.80;;
20609;SDS011;10463;52.378;9.688;2022-08-21T07:36:07;3.60;;;2.33;;
20609;SDS011;10463;52.378;9.688;2022-08-21T07:38:53;4.47;;;2.10;;
20609;SDS011;10463;52.378;9.688;2022-08-21T07:41:37;4.50;;;2.40;;
20609;SDS011;10463;52.378;9.688;2022-08-21T07:44:23;8.83;;;2.57;;
20609;SDS011;10463;52.378;9.688;2022-08-21T07:47:08;3.40;;;2.10;;
20609;SDS011;10463;52.378;9.688;2022-08-21T07:49:53;3.73;;;2.07;;
20609;SDS011;10463;52.378;9.688;2022-08-21T07:52:38;3.47;;;2.00;;
20609;SDS011;10463;52.378;9.688;2022-08-21T07:55:23;3.07;;;2.10;;
20609;SDS011;10463;52.378;9.688;2022-08-21T07:58:08;5.40;;;2.60;;
20609;SDS011;10463;52.378;9.688;2022-08-21T08:00:54;2.73;;;1.87;;
20609;SDS011;10463;52.378;9.688;2022-08-21T08:03:40;3.40;;;1.80;;
20609;SDS011;10463;52.378;9.688;2022-08-21T08:06:25;4.03;;;1.67;;
20609;SDS011;10463;52.378;9.688;2022-08-21T08:09:11;3.30;;;1.80;;
20609;SDS011;10463;52.378;9.688;2022-08-21T08:11:55;3.37;;;2.10;;
20609;SDS011;10463;52.378;9.688;2022-08-21T08:14:41;3.20;;;1.60;;
20609;SDS011;10463;52.378;9.688;2022-08-21T08:17:28;2.47;;;1.50;;
20609;SDS011;10463;52.378;9.688;2022-08-21T08:20:14;7.13;;;1.87;;
20609;SDS011;10463;52.378;9.688;2022-08-21T08:23:01;3.73;;;2.20;;
20609;SDS011;10463;52.378;9.688;2022-08-21T08:25:46;4.33;;;2.23;;
20609;SDS011;10463;52.378;9.688;2022-08-21T08:28:31;2.10;;;1.60;;
20609;SDS011;10463;52.378;9.688;2022-08-21T08:31:16;2.83;;;1.50;;
20609;SDS011;10463;52.378;9.688;2022-08-21T08:34:02;3.23;;;1.93;;
20609;SDS011;10463;52.378;9.688;2022-08-21T08:36:47;4.00;;;2.20;;
20609;SDS011;10463;52.378;9.688;2022-08-21T08:39:32;3.10;;;1.63;;
20609;SDS011;10463;52.378;9.688;2022-08-21T08:42:20;3.40;;;1.80;;
20609;SDS011;10463;52.378;9.688;2022-08-21T08:45:12;4.97;;;2.20;;
20609;SDS011;10463;52.378;9.688;2022-08-21T08:48:01;2.93;;;2.03;;
20609;SDS011;10463;52.378;9.688;2022-08-21T08:50:54;3.80;;;1.97;;
20609;SDS011;10463;52.378;9.688;2022-08-21T08:53:46;3.73;;;2.13;;
20609;SDS011;10463;52.378;9.688;2022-08-21T08:56:36;3.47;;;2.07;;
20609;SDS011;10463;52.378;9.688;2022-08-21T08:59:22;5.80;;;2.63;;
20609;SDS011;10463;52.378;9.688;2022-08-21T09:02:14;3.83;;;2.10;;
20609;SDS011;10463;52.378;9.688;2022-08-21T09:05:00;2.80;;;1.73;;
20609;SDS011;10463;52.378;9.688;2022-08-21T09:08:00;4.57;;;2.37;;
20609;SDS011;10463;52.378;9.688;2022-08-21T09:11:07;3.77;;;2.33;;
20609;SDS011;10463;52.378;9.688;2022-08-21T09:14:08;3.23;;;2.27;;
20609;SDS011;10463;52.378;9.688;2022-08-21T09:17:04;4.27;;;1.70;;
20609;SDS011;10463;52.378;9.688;2022-08-21T09:20:03;4.83;;;2.23;;
20609;SDS011;10463;52.378;9.688;2022-08-21T09:23:08;4.20;;;2.00;;
20609;SDS011;10463;52.378;9.688;2022-08-21T09:26:04;5.60;;;2.20;;
20609;SDS011;10463;52.378;9.688;2022-08-21T09:28:53;4.60;;;2.43;;
20609;SDS011;10463;52.378;9.688;2022-08-21T09:31:39;3.83;;;1.37;;
20609;SDS011;10463;52.378;9.688;2022-08-21T09:34:26;2.90;;;1.83;;
20609;SDS011;10463;52.378;9.688;2022-08-21T09:37:16;2.20;;;1.57;;
20609;SDS011;10463;52.378;9.688;2022-08-21T09:40:15;3.17;;;2.20;;
20609;SDS011;10463;52.378;9.688;2022-08-21T09:43:20;5.37;;;2.20;;
20609;SDS011;10463;52.378;9.688;2022-08-21T09:46:09;7.83;;;2.13;;
20609;SDS011;10463;52.378;9.688;2022-08-21T09:48:56;5.20;;;2.10;;
20609;SDS011;10463;52.378;9.688;2022-08-21T09:51:50;4.27;;;2.17;;
20609;SDS011;10463;52.378;9.688;2022-08-21T09:54:39;2.80;;;1.90;;
20609;SDS011;10463;52.378;9.688;2022-08-21T09:57:28;3.07;;;2.00;;
20609;SDS011;10463;52.378;9.688;2022-08-21T10:00:26;5.03;;;2.10;;
20609;SDS011;10463;52.378;9.688;2022-08-21T10:03:18;3.43;;;2.33;;
20609;SDS011;10463;52.378;9.688;2022-08-21T10:06:07;2.97;;;1.90;;
20609;SDS011;10463;52.378;9.688;2022-08-21T10:09:04;2.70;;;1.93;;
20609;SDS011;10463;52.378;9.688;2022-08-21T10:11:56;3.87;;;2.43;;
20609;SDS011;10463;52.378;9.688;2022-08-21T10:15:00;5.37;;;2.20;;
20609;SDS011;10463;52.378;9.688;2022-08-21T10:17:57;4.70;;;2.17;;
20609;SDS011;10463;52.378;9.688;2022-08-21T10:20:54;3.63;;;2.27;;
20609;SDS011;10463;52.378;9.688;2022-08-21T10:23:54;2.37;;;1.97;;
20609;SDS011;10463;52.378;9.688;2022-08-21T10:26:51;3.33;;;2.00;;
20609;SDS011;10463;52.378;9.688;2022-08-21T10:29:48;3.43;;;1.90;;
20609;SDS011;10463;52.378;9.688;2022-08-21T10:32:56;3.60;;;2.20;;
20609;SDS011;10463;52.378;9.688;2022-08-21T10:35:52;5.80;;;2.27;;
20609;SDS011;10463;52.378;9.688;2022-08-21T10:38:59;3.53;;;2.00;;
20609;SDS011;10463;52.378;9.688;2022-08-21T10:45:15;5.20;;;1.67;;
20609;SDS011;10463;52.378;9.688;2022-08-21T10:48:14;2.70;;;2.00;;
20609;SDS011;10463;52.378;9.688;2022-08-21T10:51:09;5.57;;;2.27;;
20609;SDS011;10463;52.378;9.688;2022-08-21T10:54:02;3.17;;;1.73;;
20609;SDS011;10463;52.378;9.688;2022-08-21T10:56:58;4.43;;;2.07;;
20609;SDS011;10463;52.378;9.688;2022-08-21T10:59:52;3.97;;;1.80;;
20609;SDS011;10463;52.378;9.688;2022-08-21T11:02:44;7.30;;;1.87;;
20609;SDS011;10463;52.378;9.688;2022-08-21T11:05:38;3.23;;;1.90;;
20609;SDS011;10463;52.378;9.688;2022-08-21T11:08:30;2.70;;;1.50;;
20609;SDS011;10463;52.378;9.688;2022-08-21T11:11:20;2.60;;;1.80;;
20609;SDS011;10463;52.378;9.688;2022-08-21T11:14:13;3.50;;;1.83;;
20609;SDS011;10463;52.378;9.688;2022-08-21T11:17:07;3.23;;;2.03;;
20609;SDS011;10463;52.378;9.688;2022-08-21T11:19:58;2.20;;;1.50;;
20609;SDS011;10463;52.378;9.688;2022-08-21T11:22:50;3.30;;;2.33;;
20609;SDS011;10463;52.378;9.688;2022-08-21T11:25:45;4.20;;;1.90;;
20609;SDS011;10463;52.378;9.688;2022-08-21T11:28:37;4.80;;;2.03;;
20609;SDS011;10463;52.378;9.688;2022-08-21T11:31:35;3.53;;;2.10;;
20609;SDS011;10463;52.378;9.688;2022-08-21T11:34:37;2.40;;;1.80;;
20609;SDS011;10463;52.378;9.688;2022-08-21T11:37:35;2.80;;;1.83;;
20609;SDS011;10463;52.378;9.688;2022-08-21T11:40:38;3.77;;;1.80;;
20609;SDS011;10463;52.378;9.688;2022-08-21T11:43:38;2.40;;;1.60;;
20609;SDS011;10463;52.378;9.688;2022-08-21T11:46:31;3.20;;;1.70;;
20609;SDS011;10463;52.378;9.688;2022-08-21T11:49:39;2.70;;;1.97;;
20609;SDS011;10463;52.378;9.688;2022-08-21T11:52:35;2.40;;;1.50;;
20609;SDS011;10463;52.378;9.688;2022-08-21T11:55:26;4.23;;;2.13;;
20609;SDS011;10463;52.378;9.688;2022-08-21T11:58:22;3.23;;;1.70;;
20609;SDS011;10463;52.378;9.688;2022-08-21T12:01:12;3.70;;;1.80;;
20609;SDS011;10463;52.378;9.688;2022-08-21T12:04:03;3.40;;;1.87;;
20609;SDS011;10463;52.378;9.688;2022-08-21T12:06:52;3.70;;;1.90;;
20609;SDS011;10463;52.378;9.688;2022-08-21T12:09:37;3.50;;;1.83;;
20609;SDS011;10463;52.378;9.688;2022-08-21T12:12:24;3.60;;;1.73;;
20609;SDS011;10463;52.378;9.688;2022-08-21T12:15:25;2.90;;;1.77;;
20609;SDS011;10463;52.378;9.688;2022-08-21T12:18:22;2.80;;;1.57;;
20609;SDS011;10463;52.378;9.688;2022-08-21T12:21:23;2.90;;;1.73;;
20609;SDS011;10463;52.378;9.688;2022-08-21T12:24:16;3.30;;;1.93;;
20609;SDS011;10463;52.378;9.688;2022-08-21T12:27:17;3.23;;;2.13;;
20609;SDS011;10463;52.378;9.688;2022-08-21T12:30:32;2.77;;;1.73;;
20609;SDS011;10463;52.378;9.688;2022-08-21T12:33:22;3.70;;;1.93;;
20609;SDS011;10463;52.378;9.688;2022-08-21T12:36:11;2.87;;;2.10;;
20609;SDS011;10463;52.378;9.688;2022-08-21T12:39:00;4.50;;;2.03;;
20609;SDS011;10463;52.378;9.688;2022-08-21T12:41:55;4.83;;;2.00;;
20609;SDS011;10463;52.378;9.688;2022-08-21T12:44:46;3.50;;;1.80;;
20609;SDS011;10463;52.378;9.688;2022-08-21T12:47:45;4.13;;;1.87;;
20609;SDS011;10463;52.378;9.688;2022-08-21T12:50:36;2.43;;;1.43;;
20609;SDS011;10463;52.378;9.688;2022-08-21T12:53:28;3.10;;;1.90;;
20609;SDS011;10463;52.378;9.688;2022-08-21T12:56:18;2.00;;;1.30;;
20609;SDS011;10463;52.378;9.688;2022-08-21T12:59:06;2.87;;;1.80;;
20609;SDS011;10463;52.378;9.688;2022-08-21T13:01:56;3.10;;;2.43;;
20609;SDS011;10463;52.378;9.688;2022-08-21T13:04:45;5.77;;;3.83;;
20609;SDS011;10463;52.378;9.688;2022-08-21T13:07:33;3.97;;;3.13;;
20609;SDS011;10463;52.378;9.688;2022-08-21T13:10:21;4.20;;;3.03;;
20609;SDS011;10463;52.378;9.688;2022-08-21T13:13:12;3.33;;;2.67;;
20609;SDS011;10463;52.378;9.688;2022-08-21T13:16:06;6.43;;;2.67;;
20609;SDS011;10463;52.378;9.688;2022-08-21T13:18:55;3.60;;;2.50;;
20609;SDS011;10463;52.378;9.688;2022-08-21T13:21:44;2.60;;;2.00;;
20609;SDS011;10463;52.378;9.688;2022-08-21T13:24:31;2.73;;;2.10;;
20609;SDS011;10463;52.378;9.688;2022-08-21T13:27:22;3.10;;;1.93;;
20609;SDS011;10463;52.378;9.688;2022-08-21T13:30:12;4.13;;;2.03;;
20609;SDS011;10463;52.378;9.688;2022-08-21T13:33:02;4.70;;;1.73;;
20609;SDS011;10463;52.378;9.688;2022-08-21T13:35:51;3.53;;;1.80;;
20609;SDS011;10463;52.378;9.688;2022-08-21T13:38:44;4.13;;;2.10;;
20609;SDS011;10463;52.378;9.688;2022-08-21T13:41:31;3.10;;;1.77;;
20609;SDS011;10463;52.378;9.688;2022-08-21T13:44:20;3.70;;;1.67;;
20609;SDS011;10463;52.378;9.688;2022-08-21T13:47:12;3.43;;;1.80;;
20609;SDS011;10463;52.378;9.688;2022-08-21T13:49:58;5.30;;;2.13;;
20609;SDS011;10463;52.378;9.688;2022-08-21T13:52:54;2.93;;;1.80;;
20609;SDS011;10463;52.378;9.688;2022-08-21T13:55:43;4.23;;;2.17;;
20609;SDS011;10463;52.378;9.688;2022-08-21T13:58:30;3.80;;;1.73;;
20609;SDS011;10463;52.378;9.688;2022-08-21T14:01:26;2.57;;;1.40;;
20609;SDS011;10463;52.378;9.688;2022-08-21T14:04:18;2.73;;;1.90;;
20609;SDS011;10463;52.378;9.688;2022-08-21T14:07:15;3.50;;;1.90;;
20609;SDS011;10463;52.378;9.688;2022-08-21T14:10:03;2.20;;;1.60;;
20609;SDS011;10463;52.378;9.688;2022-08-21T14:12:52;2.93;;;2.00;;
20609;SDS011;10463;52.378;9.688;2022-08-21T14:15:39;2.03;;;1.83;;
20609;SDS011;10463;52.378;9.688;2022-08-21T14:18:24;3.33;;;1.73;;
20609;SDS011;10463;52.378;9.688;2022-08-21T14:21:10;3.73;;;1.97;;
20609;SDS011;10463;52.378;9.688;2022-08-21T14:24:01;4.87;;;2.53;;
20609;SDS011;10463;52.378;9.688;2022-08-21T14:26:50;4.60;;;2.23;;
20609;SDS011;10463;52.378;9.688;2022-08-21T14:29:39;3.70;;;2.10;;
20609;SDS011;10463;52.378;9.688;2022-08-21T14:32:28;3.13;;;1.90;;
20609;SDS011;10463;52.378;9.688;2022-08-21T14:35:14;3.60;;;2.30;;
20609;SDS011;10463;52.378;9.688;2022-08-21T14:38:02;2.50;;;2.30;;
20609;SDS011;10463;52.378;9.688;2022-08-21T14:40:57;2.90;;;2.07;;
20609;SDS011;10463;52.378;9.688;2022-08-21T14:43:45;3.23;;;2.43;;
20609;SDS011;10463;52.378;9.688;2022-08-21T14:46:33;2.10;;;1.90;;
20609;SDS011;10463;52.378;9.688;2022-08-21T14:49:19;3.73;;;2.27;;
20609;SDS011;10463;52.378;9.688;2022-08-21T14:52:04;1.90;;;1.70;;
20609;SDS011;10463;52.378;9.688;2022-08-21T14:54:49;3.20;;;2.13;;
20609;SDS011;10463;52.378;9.688;2022-08-21T14:57:33;2.67;;;2.10;;
20609;SDS011;10463;52.378;9.688;2022-08-21T15:00:20;3.47;;;2.63;;
20609;SDS011;10463;52.378;9.688;2022-08-21T15:03:09;4.30;;;3.27;;
20609;SDS011;10463;52.378;9.688;2022-08-21T15:05:55;2.80;;;2.50;;
20609;SDS011;10463;52.378;9.688;2022-08-21T15:08:41;2.33;;;2.13;;
20609;SDS011;10463;52.378;9.688;2022-08-21T15:11:27;3.57;;;2.57;;
20609;SDS011;10463;52.378;9.688;2022-08-21T15:14:15;3.10;;;2.53;;
20609;SDS011;10463;52.378;9.688;2022-08-21T15:17:04;3.43;;;2.63;;
20609;SDS011;10463;52.378;9.688;2022-08-21T15:19:52;2.73;;;2.50;;
20609;SDS011;10463;52.378;9.688;2022-08-21T15:22:38;5.30;;;2.90;;
20609;SDS011;10463;52.378;9.688;2022-08-21T15:25:23;3.07;;;2.80;;
20609;SDS011;10463;52.378;9.688;2022-08-21T15:28:09;3.20;;;2.70;;
20609;SDS011;10463;52.378;9.688;2022-08-21T15:30:55;2.80;;;2.40;;
20609;SDS011;10463;52.378;9.688;2022-08-21T15:33:40;3.70;;;2.60;;
20609;SDS011;10463;52.378;9.688;2022-08-21T15:36:26;3.07;;;2.63;;
20609;SDS011;10463;52.378;9.688;2022-08-21T15:39:11;4.67;;;2.50;;
20609;SDS011;10463;52.378;9.688;2022-08-21T15:41:56;3.17;;;2.73;;
20609;SDS011;10463;52.378;9.688;2022-08-21T15:44:41;4.07;;;2.57;;
20609;SDS011;10463;52.378;9.688;2022-08-21T15:47:29;4.27;;;2.57;;
20609;SDS011;10463;52.378;9.688;2022-08-21T15:50:18;4.20;;;2.87;;
20609;SDS011;10463;52.378;9.688;2022-08-21T15:53:04;4.07;;;2.93;;
20609;SDS011;10463;52.378;9.688;2022-08-21T15:55:50;4.43;;;2.50;;
20609;SDS011;10463;52.378;9.688;2022-08-21T15:58:34;3.43;;;2.40;;
20609;SDS011;10463;52.378;9.688;2022-08-21T16:01:20;4.83;;;2.40;;
20609;SDS011;10463;52.378;9.688;2022-08-21T16:04:06;2.73;;;2.33;;
20609;SDS011;10463;52.378;9.688;2022-08-21T16:06:52;4.17;;;2.60;;
20609;SDS011;10463;52.378;9.688;2022-08-21T16:09:39;3.70;;;2.80;;
20609;SDS011;10463;52.378;9.688;2022-08-21T16:12:25;3.80;;;2.50;;
20609;SDS011;10463;52.378;9.688;2022-08-21T16:15:15;3.10;;;2.80;;
20609;SDS011;10463;52.378;9.688;2022-08-21T16:18:01;3.93;;;3.10;;
20609;SDS011;10463;52.378;9.688;2022-08-21T16:20:48;2.67;;;2.47;;
20609;SDS011;10463;52.378;9.688;2022-08-21T16:23:33;3.10;;;2.43;;
20609;SDS011;10463;52.378;9.688;2022-08-21T16:26:20;3.83;;;2.60;;
20609;SDS011;10463;52.378;9.688;2022-08-21T16:29:05;4.93;;;3.23;;
20609;SDS011;10463;52.378;9.688;2022-08-21T16:31:51;3.83;;;2.20;;
20609;SDS011;10463;52.378;9.688;2022-08-21T16:34:36;3.33;;;2.23;;
20609;SDS011;10463;52.378;9.688;2022-08-21T16:37:23;3.03;;;2.50;;
20609;SDS011;10463;52.378;9.688;2022-08-21T16:40:09;4.67;;;2.63;;
20609;SDS011;10463;52.378;9.688;2022-08-21T16:42:55;3.23;;;2.77;;
20609;SDS011;10463;52.378;9.688;2022-08-21T16:45:40;3.03;;;2.70;;
20609;SDS011;10463;52.378;9.688;2022-08-21T16:48:27;2.80;;;2.40;;
20609;SDS011;10463;52.378;9.688;2022-08-21T16:51:15;4.00;;;2.70;;
20609;SDS011;10463;52.378;9.688;2022-08-21T16:54:00;4.20;;;2.70;;
20609;SDS011;10463;52.378;9.688;2022-08-21T16:56:46;3.23;;;2.70;;
20609;SDS011;10463;52.378;9.688;2022-08-21T16:59:32;3.30;;;2.50;;